Time;durP1;ratioP1;P1;durP2;ratioP2;P2;SDS_P1;SDS_P2;PMS_P1;PMS_P2;Temp;Humidity;BMP_temperature;BMP_pressure;BME280_temperature;BME280_humidity;BME280_pressure;Samples;Min_cycle;Max_cycle;Signal;HPM_P1;HPM_P2
2022/05/03 00:01:07;;;;;;;8.05;5.40;;;;;;;8.74;61.92;98882.34;4950002;28;20080;-63
2022/05/03 00:03:43;;;;;;;7.25;4.93;;;;;;;8.72;60.71;98879.78;4974680;28;20136;-63
2022/05/03 00:06:07;;;;;;;11.20;5.15;;;;;;;8.61;62.60;98881.56;4956537;28;20140;-63
2022/05/03 00:08:43;;;;;;;7.25;4.93;;;;;;;8.56;63.56;98879.28;4970834;28;20033;-62
2022/05/03 00:11:21;;;;;;;8.27;4.97;;;;;;;8.43;64.18;98883.81;4973042;28;20057;-62
2022/05/03 00:13:56;;;;;;;6.57;5.22;;;;;;;8.50;63.70;98876.22;4945454;28;20121;-64
2022/05/03 00:16:22;;;;;;;8.30;5.70;;;;;;;8.43;62.92;98869.69;4969540;28;20460;-65
2022/05/03 00:18:47;;;;;;;9.50;5.78;;;;;;;8.37;63.66;98877.13;4960541;28;20046;-62
2022/05/03 00:21:12;;;;;;;6.85;4.80;;;;;;;8.33;63.98;98870.38;4977598;28;20051;-63
2022/05/03 00:23:38;;;;;;;8.18;5.57;;;;;;;8.28;63.88;98861.84;4962756;28;20046;-63
2022/05/03 00:26:03;;;;;;;8.77;5.30;;;;;;;8.26;64.12;98866.44;4957499;28;20057;-63
2022/05/03 00:28:29;;;;;;;9.05;4.90;;;;;;;8.23;63.86;98861.38;4952347;28;20120;-62
2022/05/03 00:30:55;;;;;;;9.00;5.35;;;;;;;8.18;64.51;98858.19;4976402;28;20061;-63
2022/05/03 00:33:20;;;;;;;6.97;4.95;;;;;;;8.16;65.18;98860.09;4954453;28;20101;-63
2022/05/03 00:35:44;;;;;;;7.68;5.00;;;;;;;8.19;64.40;98865.19;4982960;28;20058;-63
2022/05/03 00:38:09;;;;;;;8.30;6.10;;;;;;;8.15;65.74;98855.75;4985371;28;20127;-62
2022/05/03 00:40:39;;;;;;;8.95;5.85;;;;;;;8.08;66.08;98846.56;5021998;28;20495;-63
2022/05/03 00:43:30;;;;;;;8.35;5.82;;;;;;;8.08;66.29;98851.88;5021450;28;20137;-62
2022/05/03 00:46:01;;;;;;;6.72;4.82;;;;;;;8.03;65.92;98846.88;5017939;28;20068;-63
2022/05/03 00:48:38;;;;;;;7.28;4.95;;;;;;;7.96;66.58;98842.16;5017274;28;20032;-64
2022/05/03 00:51:12;;;;;;;10.48;5.70;;;;;;;7.98;67.74;98840.25;5018214;28;20048;-66
2022/05/03 00:54:12;;;;;;;7.82;5.72;;;;;;;7.95;67.61;98841.31;5018796;28;20490;-64
2022/05/03 00:56:49;;;;;;;9.00;6.05;;;;;;;7.89;67.04;98832.97;5016099;28;20410;-63
2022/05/03 00:59:55;;;;;;;8.93;5.50;;;;;;;7.91;68.03;98842.47;5019350;28;20048;-65
2022/05/03 01:02:44;;;;;;;13.90;5.70;;;;;;;7.97;65.83;98833.25;4941653;28;20059;-65
2022/05/03 01:05:10;;;;;;;10.35;6.90;;;;;;;7.89;66.43;98838.28;4924037;28;20457;-66
2022/05/03 01:07:42;;;;;;;9.35;6.72;;;;;;;7.79;67.27;98842.56;4922613;28;20053;-65
2022/05/03 01:10:36;;;;;;;7.07;5.32;;;;;;;7.82;66.83;98837.00;4920156;28;20379;-66
2022/05/03 01:13:47;;;;;;;10.25;6.50;;;;;;;7.81;68.28;98832.66;4920210;28;20050;-65
2022/05/03 01:16:16;;;;;;;9.57;6.20;;;;;;;7.70;68.82;98828.13;4882780;29;20407;-66
2022/05/03 01:18:53;;;;;;;8.10;5.72;;;;;;;7.70;68.41;98824.63;4898759;29;20832;-65
2022/05/03 01:21:56;;;;;;;9.45;5.78;;;;;;;7.72;68.84;98828.03;4897979;29;20051;-71
2022/05/03 01:24:54;;;;;;;10.02;6.18;;;;;;;7.65;70.99;98822.31;4881773;29;20610;-67
2022/05/03 01:27:50;;;;;;;9.82;5.93;;;;;;;7.74;68.63;98812.84;4899808;29;20780;-67
2022/05/03 01:30:16;;;;;;;8.70;6.07;;;;;;;7.60;70.08;98820.00;4888064;29;20138;-68
2022/05/03 01:32:45;;;;;;;8.20;5.95;;;;;;;7.62;69.07;98801.31;4887032;29;20101;-66
2022/05/03 01:35:14;;;;;;;8.02;5.70;;;;;;;7.60;69.94;98804.09;4902092;28;20150;-68
2022/05/03 01:37:45;;;;;;;9.70;6.50;;;;;;;7.65;69.09;98795.81;4926389;28;20038;-68
2022/05/03 01:40:21;;;;;;;11.32;6.53;;;;;;;7.67;69.19;98801.00;4942353;28;20140;-67
2022/05/03 01:42:56;;;;;;;9.73;6.13;;;;;;;7.60;70.01;98803.22;4994406;28;20076;-66
2022/05/03 01:45:36;;;;;;;7.50;5.88;;;;;;;7.58;70.62;98803.34;4994957;28;20160;-67
2022/05/03 01:48:23;;;;;;;8.38;5.85;;;;;;;7.60;69.79;98804.09;5027307;28;20135;-66
2022/05/03 01:50:59;;;;;;;11.07;5.90;;;;;;;7.57;69.11;98799.00;5020764;28;20412;-67
2022/05/03 01:53:35;;;;;;;9.13;5.25;;;;;;;7.55;69.66;98794.78;5007176;28;20507;-67
2022/05/03 01:56:37;;;;;;;9.68;5.78;;;;;;;7.64;68.40;98794.94;5010241;28;20055;-68
2022/05/03 01:59:31;;;;;;;7.30;5.15;;;;;;;7.59;70.19;98797.06;4987728;28;20036;-66
2022/05/03 02:02:00;;;;;;;8.27;5.70;;;;;;;7.54;69.87;98793.94;5009374;28;20048;-69
2022/05/03 02:04:59;;;;;;;8.45;5.45;;;;;;;7.61;70.79;98789.88;5017231;28;20087;-69
2022/05/03 02:07:35;;;;;;;8.05;5.38;;;;;;;7.59;69.55;98796.22;5017311;28;20384;-67
2022/05/03 02:10:03;;;;;;;8.73;6.45;;;;;;;7.56;69.77;98791.16;5017864;28;20187;-67
2022/05/03 02:12:29;;;;;;;7.50;5.63;;;;;;;7.53;71.22;98796.69;5003338;28;20587;-67
2022/05/03 02:15:03;;;;;;;10.50;6.03;;;;;;;7.55;71.79;98795.63;5019957;28;20407;-67
2022/05/03 02:17:53;;;;;;;8.27;5.80;;;;;;;7.64;71.51;98797.59;4983893;28;20037;-66
2022/05/03 02:20:21;;;;;;;8.48;5.50;;;;;;;7.71;71.33;98792.69;4979801;28;20511;-64
2022/05/03 02:23:05;;;;;;;10.23;5.97;;;;;;;7.76;72.22;98787.91;5005796;28;20079;-64
2022/05/03 02:25:45;;;;;;;9.20;6.22;;;;;;;7.89;70.95;98787.84;5018514;28;20040;-64
2022/05/03 02:28:38;;;;;;;7.43;5.93;;;;;;;7.94;71.30;98789.19;5018919;28;20055;-65
2022/05/03 02:31:04;;;;;;;8.90;5.50;;;;;;;7.96;69.76;98781.13;5013408;28;20088;-66
2022/05/03 02:33:38;;;;;;;7.55;5.75;;;;;;;7.96;69.94;98779.31;5015207;28;20127;-66
2022/05/03 02:36:03;;;;;;;8.30;5.95;;;;;;;7.94;69.44;98773.25;5014857;28;20044;-64
2022/05/03 02:38:39;;;;;;;10.63;6.10;;;;;;;8.02;69.79;98765.56;4997676;28;20045;-63
2022/05/03 02:41:08;;;;;;;9.60;5.80;;;;;;;7.96;69.75;98773.16;4982963;28;20064;-65
2022/05/03 02:43:34;;;;;;;9.95;6.10;;;;;;;7.97;69.19;98767.72;5015932;28;20045;-67
2022/05/03 02:46:14;;;;;;;10.38;6.32;;;;;;;7.96;70.63;98778.47;5001419;28;20032;-64
2022/05/03 02:48:55;;;;;;;12.10;6.55;;;;;;;7.96;70.26;98768.69;5014592;28;20044;-70
2022/05/03 02:51:26;;;;;;;9.30;6.50;;;;;;;7.90;71.14;98763.81;4997526;28;20129;-65
2022/05/03 02:53:55;;;;;;;10.85;6.22;;;;;;;8.06;69.57;98760.03;5015283;28;20582;-65
2022/05/03 02:56:44;;;;;;;7.88;5.65;;;;;;;8.10;69.13;98767.66;4997494;28;20069;-64
2022/05/03 03:01:47;;;;;;;11.45;6.38;;;;;;;8.14;69.38;98758.47;4997106;28;20045;-64
2022/05/03 03:02:28;;;;;;;10.13;6.00;;;;;;;8.18;69.54;98757.31;5015587;28;20045;-64
2022/05/03 03:05:04;;;;;;;8.63;5.93;;;;;;;8.26;69.59;98754.06;5015085;28;20045;-64
2022/05/03 03:07:59;;;;;;;9.48;5.55;;;;;;;8.35;69.55;98756.06;4997201;28;20507;-65
2022/05/03 03:10:30;;;;;;;;;;;;;;;8.57;68.32;98758.75;4995512;28;20064;-65
2022/05/03 03:12:58;;;;;;;10.02;6.32;;;;;;;8.55;69.01;98754.53;4996952;28;20279;-64
2022/05/03 03:15:28;;;;;;;10.63;5.63;;;;;;;8.60;68.88;98758.50;4997542;28;20127;-64
2022/05/03 03:17:54;;;;;;;7.18;5.40;;;;;;;8.70;68.43;98753.31;5013658;28;20161;-65
2022/05/03 03:20:24;;;;;;;9.18;6.07;;;;;;;8.86;67.79;98752.97;5015211;28;20069;-64
2022/05/03 03:22:49;;;;;;;9.55;5.38;;;;;;;8.97;67.47;98750.31;5019442;28;20098;-63
2022/05/03 03:25:19;;;;;;;7.38;5.68;;;;;;;9.09;67.31;98752.00;5004005;28;20045;-63
2022/05/03 03:27:48;;;;;;;7.68;5.35;;;;;;;9.17;67.02;98751.38;5021989;28;20527;-64
2022/05/03 03:30:14;;;;;;;10.55;5.57;;;;;;;9.20;66.77;98744.03;5006878;28;20040;-66
2022/05/03 03:32:41;;;;;;;10.32;5.68;;;;;;;9.38;66.80;98741.69;5004293;28;20073;-64
2022/05/03 03:35:06;;;;;;;6.40;5.35;;;;;;;9.54;66.37;98741.28;5004829;28;20471;-64
2022/05/03 03:37:35;;;;;;;10.80;5.95;;;;;;;9.71;65.93;98738.06;4987565;28;20500;-63
2022/05/03 03:40:02;;;;;;;9.23;6.03;;;;;;;9.94;65.48;98741.50;5021932;28;20565;-64
2022/05/03 03:42:28;;;;;;;8.48;5.88;;;;;;;10.10;64.52;98741.94;5023438;28;20033;-63
2022/05/03 03:44:55;;;;;;;7.30;5.47;;;;;;;10.39;64.41;98740.34;5004405;28;20036;-65
2022/05/03 03:47:20;;;;;;;10.02;6.10;;;;;;;10.71;63.03;98734.09;5021622;28;20475;-64
2022/05/03 03:49:46;;;;;;;7.30;5.47;;;;;;;10.85;61.87;98731.03;5020609;28;20158;-65
2022/05/03 03:52:11;;;;;;;8.02;6.10;;;;;;;10.83;62.24;98741.03;4987438;28;20624;-65
2022/05/03 03:54:36;;;;;;;9.27;5.80;;;;;;;10.86;61.73;98743.41;5003643;28;20523;-64
2022/05/03 03:57:04;;;;;;;9.27;5.75;;;;;;;10.93;61.92;98735.72;5020956;28;20044;-65
2022/05/03 03:59:31;;;;;;;9.02;5.72;;;;;;;10.91;61.42;98731.38;5032662;28;20040;-64
2022/05/03 04:01:59;;;;;;;11.38;6.20;;;;;;;10.89;61.69;98719.16;5032661;28;20037;-65
2022/05/03 04:04:30;;;;;;;9.15;5.60;;;;;;;10.96;61.66;98714.94;5031535;28;20418;-65
2022/05/03 04:06:55;;;;;;;8.10;5.88;;;;;;;10.97;61.34;98713.13;5003941;28;20044;-65
2022/05/03 04:09:20;;;;;;;8.88;5.70;;;;;;;10.98;61.34;98722.81;5003579;28;20436;-66
2022/05/03 04:11:46;;;;;;;13.63;5.55;;;;;;;10.96;61.77;98717.63;4987428;28;20051;-66
2022/05/03 04:14:12;;;;;;;9.60;5.25;;;;;;;11.10;60.92;98721.75;5003255;28;20190;-65
2022/05/03 04:16:36;;;;;;;7.53;5.80;;;;;;;11.22;60.70;98710.84;5003486;28;20126;-64
2022/05/03 04:19:01;;;;;;;8.77;6.32;;;;;;;11.47;60.54;98708.66;5019755;28;20041;-65
2022/05/03 04:21:26;;;;;;;12.23;5.47;;;;;;;11.64;60.06;98710.63;5021185;28;20049;-65
2022/05/03 04:23:51;;;;;;;8.13;5.85;;;;;;;11.93;59.30;98716.88;4986466;28;20531;-65
2022/05/03 04:26:16;;;;;;;7.85;5.70;;;;;;;12.25;58.22;98715.72;5021183;28;20044;-65
2022/05/03 04:28:41;;;;;;;7.20;5.30;;;;;;;12.56;57.51;98709.19;5003039;28;20575;-65
2022/05/03 04:31:06;;;;;;;8.90;5.85;;;;;;;12.99;56.64;98713.09;5021318;28;20182;-66
2022/05/03 04:33:32;;;;;;;9.05;5.80;;;;;;;13.19;55.38;98709.41;5018829;28;20048;-65
2022/05/03 04:35:56;;;;;;;6.63;4.68;;;;;;;13.21;54.71;98715.41;5016572;28;20136;-64
2022/05/03 04:38:21;;;;;;;9.02;5.18;;;;;;;13.26;55.59;98690.91;5017713;28;20210;-65
2022/05/03 04:40:46;;;;;;;11.07;5.72;;;;;;;13.21;54.80;98694.00;4999837;28;20118;-66
2022/05/03 04:43:11;;;;;;;7.28;5.80;;;;;;;13.25;54.46;98691.88;5017866;28;20048;-64
2022/05/03 04:45:36;;;;;;;9.77;6.43;;;;;;;13.49;54.67;98694.84;5017597;28;20052;-65
2022/05/03 04:48:00;;;;;;;9.65;5.53;;;;;;;13.72;53.86;98693.41;5017805;28;20045;-64
2022/05/03 04:50:25;;;;;;;9.60;5.95;;;;;;;13.61;53.71;98685.59;5016751;28;20037;-64
2022/05/03 04:52:51;;;;;;;7.45;5.75;;;;;;;13.80;54.22;98700.69;4999587;28;20056;-65
2022/05/03 04:55:15;;;;;;;9.35;6.07;;;;;;;13.87;53.03;98685.69;5017438;28;20052;-65
2022/05/03 04:57:40;;;;;;;8.50;5.70;;;;;;;13.97;52.56;98690.97;5015937;28;20041;-66
2022/05/03 05:00:05;;;;;;;7.53;5.30;;;;;;;14.06;52.44;98701.59;5018316;28;20419;-65
2022/05/03 05:02:30;;;;;;;11.35;5.70;;;;;;;14.15;52.19;98689.09;5020651;28;20334;-65
2022/05/03 05:04:55;;;;;;;8.57;5.88;;;;;;;14.44;51.88;98689.69;5018928;28;20479;-66
2022/05/03 05:07:19;;;;;;;10.15;6.00;;;;;;;14.36;50.73;98680.69;5017801;28;20204;-65
2022/05/03 05:10:23;;;;;;;7.72;5.70;;;;;;;14.59;51.29;98683.72;5018227;28;20065;-67
2022/05/03 05:12:30;;;;;;;6.63;5.05;;;;;;;14.57;50.67;98683.88;5018727;28;20079;-66
2022/05/03 05:14:55;;;;;;;8.32;5.60;;;;;;;14.47;51.04;98680.47;4999490;28;20080;-66
2022/05/03 05:17:19;;;;;;;8.68;5.28;;;;;;;14.43;51.50;98679.97;4982657;28;20072;-64
2022/05/03 05:19:44;;;;;;;7.07;4.97;;;;;;;14.39;50.52;98680.41;4999056;28;20053;-65
2022/05/03 05:22:10;;;;;;;7.25;5.20;;;;;;;14.13;51.48;98672.31;5016930;28;20124;-65
2022/05/03 05:24:34;;;;;;;7.57;5.13;;;;;;;13.70;52.49;98673.13;5015118;28;20128;-64
2022/05/03 05:26:59;;;;;;;8.73;5.68;;;;;;;13.62;52.92;98667.69;4999034;28;20049;-66
2022/05/03 05:29:24;;;;;;;14.45;6.20;;;;;;;13.94;52.87;98665.31;5016753;28;20048;-66
2022/05/03 05:31:49;;;;;;;10.07;5.90;;;;;;;14.43;50.92;98666.56;5016806;28;20099;-66
2022/05/03 05:34:13;;;;;;;7.95;6.13;;;;;;;14.56;51.80;98665.31;5017003;28;20499;-66
2022/05/03 05:36:38;;;;;;;10.48;5.47;;;;;;;14.90;50.13;98666.97;5016076;28;20362;-64
2022/05/03 05:39:03;;;;;;;8.27;5.85;;;;;;;15.37;49.06;98660.25;4998934;28;20094;-66
2022/05/03 05:41:28;;;;;;;8.52;5.75;;;;;;;15.64;48.23;98649.28;5016632;28;20204;-65
2022/05/03 05:43:53;;;;;;;7.88;5.30;;;;;;;16.23;47.21;98660.72;5015296;28;20151;-65
2022/05/03 05:46:17;;;;;;;11.32;6.28;;;;;;;16.49;46.40;98647.91;4998222;28;20182;-66
2022/05/03 05:48:42;;;;;;;7.82;5.65;;;;;;;16.63;45.82;98644.53;4998727;28;20059;-66
2022/05/03 05:51:07;;;;;;;8.48;5.38;;;;;;;16.46;45.86;98639.34;4998922;28;20447;-66
2022/05/03 05:53:32;;;;;;;7.28;5.43;;;;;;;16.60;45.73;98638.63;4995462;28;20049;-67
2022/05/03 05:55:56;;;;;;;7.45;5.40;;;;;;;17.24;44.59;98636.75;4996903;28;20041;-66
2022/05/03 05:58:21;;;;;;;6.95;5.40;;;;;;;17.82;43.63;98633.53;4978924;28;20046;-65
2022/05/03 06:00:46;;;;;;;7.97;5.38;;;;;;;18.74;41.56;98618.00;4978875;28;20045;-66
2022/05/03 06:03:11;;;;;;;8.57;5.70;;;;;;;19.07;40.39;98630.13;4996561;28;20139;-67
2022/05/03 06:05:37;;;;;;;9.77;5.65;;;;;;;19.48;39.59;98625.00;4996665;28;20183;-65
2022/05/03 06:08:02;;;;;;;9.23;5.20;;;;;;;20.01;38.36;98624.69;4996469;28;20045;-66
2022/05/03 06:10:28;;;;;;;6.80;4.95;;;;;;;20.67;37.28;98620.66;4995163;28;20041;-67
2022/05/03 06:12:53;;;;;;;5.95;5.05;;;;;;;21.41;36.24;98618.13;4994957;28;20496;-66
2022/05/03 06:15:20;;;;;;;8.77;5.65;;;;;;;21.89;34.48;98616.16;4997120;28;20496;-66
2022/05/03 06:17:46;;;;;;;6.85;5.25;;;;;;;22.01;34.50;98622.66;5002464;28;20047;-66
2022/05/03 06:20:11;;;;;;;10.70;5.40;;;;;;;21.66;34.68;98616.56;4998702;28;20052;-66
2022/05/03 06:22:36;;;;;;;7.82;5.35;;;;;;;21.40;35.28;98621.06;4994968;28;20451;-67
2022/05/03 06:25:01;;;;;;;9.57;6.07;;;;;;;21.35;35.06;98614.34;4978650;28;20049;-65
2022/05/03 06:27:26;;;;;;;8.05;5.47;;;;;;;22.04;34.58;98610.56;4995778;28;20047;-65
2022/05/03 06:29:50;;;;;;;6.72;5.25;;;;;;;22.08;34.15;98611.81;4946558;28;20926;-66
2022/05/03 06:32:15;;;;;;;6.40;4.65;;;;;;;22.61;33.73;98604.47;4996379;28;20084;-65
2022/05/03 06:34:40;;;;;;;7.75;6.10;;;;;;;23.67;31.48;98604.97;4994562;28;20345;-65
2022/05/03 06:37:05;;;;;;;10.57;5.90;;;;;;;24.44;30.31;98601.03;4994604;28;20059;-66
2022/05/03 06:39:30;;;;;;;7.85;5.50;;;;;;;25.00;29.66;98601.97;4961324;28;20105;-65
2022/05/03 06:41:55;;;;;;;7.20;5.30;;;;;;;24.74;29.32;98600.31;4995750;28;20136;-66
2022/05/03 06:44:19;;;;;;;9.88;5.97;;;;;;;25.24;29.28;98595.59;4994352;28;20124;-65
2022/05/03 06:46:44;;;;;;;10.35;5.40;;;;;;;25.37;28.69;98595.41;4977818;28;20061;-64
2022/05/03 06:49:10;;;;;;;10.93;6.15;;;;;;;25.39;28.50;98606.94;4994195;28;20033;-65
2022/05/03 06:51:35;;;;;;;9.07;5.80;;;;;;;25.29;28.58;98593.81;4977625;28;20052;-66
2022/05/03 06:54:02;;;;;;;8.05;5.90;;;;;;;25.09;28.76;98587.78;4995622;28;20061;-65
2022/05/03 06:56:26;;;;;;;7.70;5.70;;;;;;;25.12;28.73;98587.34;4995490;28;20450;-65
2022/05/03 06:58:51;;;;;;;9.35;6.00;;;;;;;24.87;29.00;98584.66;4952991;28;20045;-66
2022/05/03 07:01:16;;;;;;;11.63;6.25;;;;;;;25.32;28.42;98587.09;4995353;28;20048;-65
2022/05/03 07:03:42;;;;;;;11.15;5.82;;;;;;;25.10;28.61;98583.16;4994089;28;20053;-65
2022/05/03 07:06:08;;;;;;;8.18;5.93;;;;;;;24.32;29.63;98585.66;4995371;28;20183;-65
2022/05/03 07:08:33;;;;;;;8.40;5.90;;;;;;;24.24;29.51;98570.44;4973393;28;20080;-65
2022/05/03 07:10:58;;;;;;;9.80;6.25;;;;;;;24.96;28.80;98566.13;4957173;28;20420;-65
2022/05/03 07:13:24;;;;;;;7.85;5.38;;;;;;;26.11;27.76;98564.09;4956833;28;20077;-64
2022/05/03 07:15:52;;;;;;;6.68;5.50;;;;;;;26.27;26.79;98557.97;4973329;28;20037;-64
2022/05/03 07:23:43;;;;;;;8.07;5.40;;;;;;;25.27;27.80;98556.94;4974582;28;20046;-66
2022/05/03 07:26:08;;;;;;;9.45;5.72;;;;;;;24.35;28.87;98550.63;4974166;28;20429;-65
2022/05/03 07:28:33;;;;;;;7.35;5.45;;;;;;;24.17;29.43;98548.66;4973576;28;20501;-66
2022/05/03 07:30:57;;;;;;;7.00;5.70;;;;;;;24.18;29.17;98547.59;4974055;28;20144;-67
2022/05/03 07:33:22;;;;;;;8.55;5.80;;;;;;;24.76;28.50;98549.13;4973324;28;20054;-66
2022/05/03 07:35:47;;;;;;;7.55;5.55;;;;;;;25.21;27.57;98539.59;4974450;28;20049;-67
2022/05/03 07:38:11;;;;;;;8.65;5.45;;;;;;;25.10;27.68;98545.00;4957465;28;20097;-66
2022/05/03 07:40:36;;;;;;;11.25;5.82;;;;;;;24.37;28.26;98539.50;4994320;28;20058;-66
2022/05/03 07:43:03;;;;;;;10.32;5.53;;;;;;;23.49;29.12;98537.63;4995590;28;20050;-66
2022/05/03 07:45:28;;;;;;;9.75;5.63;;;;;;;22.56;30.48;98541.81;4995576;28;20046;-66
2022/05/03 07:47:52;;;;;;;10.13;5.35;;;;;;;21.69;31.58;98525.75;4977837;28;20041;-66
2022/05/03 07:50:17;;;;;;;8.90;5.80;;;;;;;21.03;32.07;98533.72;4996026;28;20138;-67
2022/05/03 07:52:42;;;;;;;11.82;6.15;;;;;;;20.43;33.14;98520.97;4976147;28;20064;-69
2022/05/03 07:55:08;;;;;;;7.50;5.13;;;;;;;19.99;33.20;98523.94;4995685;28;20089;-66
2022/05/03 07:57:33;;;;;;;10.02;5.82;;;;;;;19.73;33.62;98522.72;4995784;28;20407;-69
2022/05/03 07:59:58;;;;;;;7.45;5.03;;;;;;;19.10;34.88;98518.94;4996633;28;20041;-66
2022/05/03 08:02:24;;;;;;;11.90;5.20;;;;;;;19.00;35.04;98518.41;4999047;28;20045;-66
2022/05/03 08:04:51;;;;;;;9.00;5.30;;;;;;;18.84;34.94;98524.06;4995591;28;20049;-69
2022/05/03 08:07:16;;;;;;;8.15;5.22;;;;;;;20.15;33.66;98515.53;4994884;28;20042;-68
2022/05/03 08:09:41;;;;;;;8.57;5.32;;;;;;;22.31;29.99;98497.38;4995321;28;20045;-69
2022/05/03 08:12:06;;;;;;;8.20;4.35;;;;;;;23.06;27.35;98495.84;4998982;28;20045;-67
2022/05/03 08:14:31;;;;;;;7.65;5.28;;;;;;;23.11;27.51;98496.03;5014582;28;20060;-67
2022/05/03 08:16:56;;;;;;;6.03;4.75;;;;;;;23.24;27.63;98500.56;4981204;28;20061;-67
2022/05/03 08:19:22;;;;;;;10.73;5.18;;;;;;;22.52;26.94;98507.97;4998147;28;20056;-66
2022/05/03 08:21:47;;;;;;;7.80;4.78;;;;;;;21.94;27.08;98499.69;4998153;28;20076;-67
2022/05/03 08:24:12;;;;;;;9.93;5.07;;;;;;;20.65;28.24;98493.56;4998117;28;20069;-67
2022/05/03 08:26:36;;;;;;;7.72;4.78;;;;;;;19.70;29.58;98501.47;4997230;28;20403;-68
2022/05/03 08:29:02;;;;;;;14.85;4.88;;;;;;;20.09;30.32;98498.22;4980267;28;20075;-67
2022/05/03 08:31:27;;;;;;;9.60;4.50;;;;;;;20.98;28.79;98501.00;4998399;28;20412;-67
2022/05/03 08:33:51;;;;;;;8.35;4.35;;;;;;;21.32;27.53;98481.94;4997052;28;20415;-67
2022/05/03 08:36:16;;;;;;;6.65;4.30;;;;;;;22.53;26.20;98493.34;5000205;28;20557;-68
2022/05/03 08:44:31;;;;;;;12.95;4.80;;;;;;;26.05;22.23;98496.75;4960764;28;20673;-67
2022/05/03 08:46:57;;;;;;;18.80;4.32;;;;;;;27.58;19.70;98477.03;4976365;28;20042;-67
2022/05/03 08:49:36;;;;;;;7.47;4.15;;;;;;;27.73;19.93;98477.31;4959834;28;20045;-68
2022/05/03 08:52:02;;;;;;;10.65;4.63;;;;;;;26.89;20.08;98475.38;4943444;28;20116;-67
2022/05/03 08:54:28;;;;;;;11.38;5.57;;;;;;;26.11;20.95;98473.94;4992800;28;20064;-67
2022/05/03 08:56:54;;;;;;;7.00;4.20;;;;;;;25.53;21.55;98471.13;5015195;28;20546;-67
2022/05/03 08:59:20;;;;;;;7.13;4.22;;;;;;;25.27;21.06;98470.47;4998317;28;20055;-69
2022/05/03 09:01:45;;;;;;;8.43;4.20;;;;;;;24.22;21.59;98461.72;4966058;28;20087;-72
2022/05/03 09:04:10;;;;;;;8.77;4.22;;;;;;;23.08;22.39;98437.50;5015376;28;20045;-70
2022/05/03 09:06:45;;;;;;;14.27;4.15;;;;;;;22.97;22.69;98457.22;4999503;28;20095;-70
2022/05/03 09:09:14;;;;;;;12.70;4.70;;;;;;;24.85;21.25;98446.91;4998508;28;20057;-71
2022/05/03 09:11:47;;;;;;;9.95;4.50;;;;;;;27.55;19.16;98446.53;4998407;28;20538;-70
2022/05/03 09:14:36;;;;;;;9.20;4.55;;;;;;;28.66;17.80;98450.19;5000507;28;20148;-71
2022/05/03 09:17:02;;;;;;;7.07;4.50;;;;;;;27.01;18.25;98432.44;5037138;28;20040;-70
2022/05/03 09:19:27;;;;;;;12.90;4.65;;;;;;;25.62;19.76;98439.75;5038373;28;20090;-71
2022/05/03 09:24:56;;;;;;;8.40;4.82;;;;;;;23.59;21.92;98433.78;5038460;28;20047;-70
2022/05/03 09:27:22;;;;;;;11.13;4.72;;;;;;;24.30;21.86;98422.44;5029532;28;20048;-69
2022/05/03 09:30:00;;;;;;;8.45;4.45;;;;;;;24.66;21.72;98416.13;5040311;28;20135;-69
2022/05/03 09:32:40;;;;;;;7.82;4.75;;;;;;;24.63;21.63;98426.66;5051345;28;20062;-68
2022/05/03 09:35:06;;;;;;;11.85;5.07;;;;;;;25.60;20.93;98426.31;5024566;28;20102;-69
2022/05/03 09:37:41;;;;;;;16.67;5.93;;;;;;;28.22;18.67;98417.25;5039433;28;20044;-72
2022/05/03 09:40:08;;;;;;;8.10;4.55;;;;;;;30.38;17.26;98399.59;4989140;28;20051;-70
2022/05/03 09:42:38;;;;;;;10.43;4.88;;;;;;;31.64;15.46;98415.66;5022124;28;20048;-69
2022/05/03 09:45:05;;;;;;;18.02;5.85;;;;;;;32.76;14.94;98418.22;5021263;28;20041;-68
2022/05/03 09:47:34;;;;;;;11.60;5.53;;;;;;;31.83;15.36;98409.59;5002826;28;20036;-69
2022/05/03 09:49:59;;;;;;;7.82;4.50;;;;;;;31.22;15.66;98410.38;5038686;28;20101;-69
2022/05/03 09:52:29;;;;;;;6.10;5.35;;;;;;;32.54;14.72;98407.50;5044444;28;20047;-71
2022/05/03 09:55:06;;;;;;;6.38;4.40;;;;;;;32.47;14.47;98402.31;5026139;28;20044;-71
2022/05/03 09:57:33;;;;;;;9.35;5.00;;;;;;;30.75;15.24;98406.91;5039331;28;20040;-70
2022/05/03 09:59:59;;;;;;;7.95;4.50;;;;;;;27.56;18.05;98410.72;5035323;28;20045;-68
2022/05/03 10:02:25;;;;;;;6.95;4.60;;;;;;;25.84;19.68;98405.34;5018259;28;20040;-70
2022/05/03 10:04:56;;;;;;;7.35;4.80;;;;;;;26.34;19.41;98394.72;5019329;28;20064;-73
2022/05/03 10:07:21;;;;;;;9.45;4.25;;;;;;;27.21;18.38;98385.47;5018631;28;20110;-73
2022/05/03 10:09:46;;;;;;;7.82;4.03;;;;;;;26.72;18.55;98376.91;5040455;28;20048;-71
2022/05/03 10:12:12;;;;;;;10.98;4.82;;;;;;;25.47;19.73;98390.19;5045910;28;20051;-72
2022/05/03 10:14:45;;;;;;;6.95;4.10;;;;;;;24.67;20.58;98392.44;5044117;28;20071;-71
2022/05/03 10:22:53;;;;;;;5.78;4.28;;;;;;;24.06;21.58;98385.19;5023444;28;20041;-72
2022/05/03 10:25:28;;;;;;;6.40;4.50;;;;;;;23.65;22.17;98374.94;5020112;28;20055;-71
2022/05/03 10:27:57;;;;;;;7.20;4.00;;;;;;;22.88;22.76;98381.59;5036516;28;20036;-74
2022/05/03 10:30:24;;;;;;;11.02;4.10;;;;;;;22.43;23.47;98366.13;5019390;28;20036;-71
2022/05/03 10:33:28;;;;;;;6.25;4.18;;;;;;;22.29;24.20;98371.84;5021363;28;20048;-71
2022/05/03 10:35:53;;;;;;;6.82;4.20;;;;;;;21.72;24.89;98368.00;4960610;28;20161;-70
2022/05/03 10:38:43;;;;;;;9.82;3.78;;;;;;;22.00;24.29;98356.94;4974987;28;20073;-71
2022/05/03 10:41:13;;;;;;;10.80;4.32;;;;;;;21.18;25.59;98358.28;4975942;28;20108;-71
2022/05/03 10:43:38;;;;;;;9.18;3.97;;;;;;;21.03;25.50;98353.00;4974427;28;20045;-71
2022/05/03 10:46:23;;;;;;;8.02;4.30;;;;;;;21.15;24.72;98352.38;4973358;28;20042;-71
2022/05/03 10:49:12;;;;;;;11.75;4.20;;;;;;;20.72;25.40;98352.78;4973596;28;20057;-67
2022/05/03 10:51:37;;;;;;;7.78;3.67;;;;;;;20.77;25.63;98347.56;4975160;28;20124;-72
2022/05/03 10:54:03;;;;;;;17.30;4.20;;;;;;;20.62;25.33;98346.91;4960796;28;20060;-71
2022/05/03 10:56:28;;;;;;;13.35;4.13;;;;;;;20.60;25.78;98344.41;4939707;28;20052;-72
2022/05/03 10:59:16;;;;;;;10.70;5.10;;;;;;;20.49;25.74;98325.22;4939999;28;20046;-71
2022/05/03 11:02:10;;;;;;;6.05;4.07;;;;;;;20.40;25.60;98338.13;4956687;28;20046;-72
2022/05/03 11:04:55;;;;;;;10.15;4.10;;;;;;;20.10;25.55;98342.13;4905949;28;20192;-73
2022/05/03 11:07:24;;;;;;;7.55;3.60;;;;;;;19.87;26.16;98332.44;4944950;28;20565;-71
2022/05/03 11:09:49;;;;;;;6.47;3.58;;;;;;;19.98;26.17;98338.34;4937917;28;20898;-68
2022/05/03 11:12:14;;;;;;;7.45;3.67;;;;;;;19.82;26.33;98334.09;4954380;28;20421;-68
2022/05/03 11:14:41;;;;;;;10.20;3.80;;;;;;;19.63;26.91;98338.38;4918629;28;20046;-69
2022/05/03 11:17:08;;;;;;;6.18;3.85;;;;;;;19.44;27.17;98328.22;4935568;28;20046;-68
2022/05/03 11:19:34;;;;;;;4.15;3.35;;;;;;;19.71;27.30;98326.56;4954531;28;20112;-74
2022/05/03 11:21:59;;;;;;;5.13;3.58;;;;;;;19.74;26.89;98326.16;4954715;28;20555;-73
2022/05/03 11:24:29;;;;;;;4.20;3.30;;;;;;;19.73;27.28;98319.09;4938097;28;20129;-74
2022/05/03 11:27:09;;;;;;;7.97;3.65;;;;;;;19.87;26.98;98331.59;4920548;28;20042;-71
2022/05/03 11:29:41;;;;;;;6.68;3.92;;;;;;;19.75;27.19;98323.22;4936315;28;20042;-76
2022/05/03 11:32:07;;;;;;;6.07;3.45;;;;;;;19.74;27.17;98315.34;4922841;28;20065;-75
2022/05/03 11:34:32;;;;;;;8.23;4.25;;;;;;;19.81;26.75;98318.91;4954214;28;20050;-76
2022/05/03 11:36:57;;;;;;;13.15;4.28;;;;;;;19.88;26.18;98309.78;4937914;28;20413;-75
2022/05/03 11:39:25;;;;;;;8.38;3.55;;;;;;;19.66;26.25;98297.41;4937735;28;20457;-74
2022/05/03 11:41:50;;;;;;;7.40;3.95;;;;;;;19.70;26.44;98304.09;4985745;28;20053;-73
2022/05/03 11:44:16;;;;;;;7.75;3.72;;;;;;;19.72;26.44;98299.31;4980767;28;20053;-75
2022/05/03 11:46:43;;;;;;;8.13;3.08;;;;;;;19.40;26.81;98303.47;4983834;28;20124;-74
2022/05/03 11:49:10;;;;;;;10.85;3.60;;;;;;;19.18;27.01;98299.16;5003134;28;20048;-75
2022/05/03 11:57:20;;;;;;;3.42;3.00;;;;;;;18.99;26.71;98280.91;5008999;28;20045;-76
2022/05/03 11:59:46;;;;;;;7.80;3.90;;;;;;;18.82;26.87;98277.69;4968037;28;20585;-76
2022/05/03 12:02:15;;;;;;;12.65;3.42;;;;;;;18.67;27.01;98283.16;5000548;28;20090;-74
2022/05/03 12:04:55;;;;;;;8.80;3.90;;;;;;;18.56;27.43;98267.47;5001227;28;20045;-75
2022/05/03 12:07:20;;;;;;;5.82;3.65;;;;;;;18.39;27.63;98266.06;5020434;28;20101;-73
2022/05/03 12:09:45;;;;;;;9.80;4.10;;;;;;;18.38;27.30;98259.00;5020847;28;20097;-74
2022/05/03 12:14:53;;;;;;;4.82;3.13;;;;;;;18.35;27.38;98262.91;5039695;28;20498;-74